Shawnee On Delaware, PA (18356)

12:37 PM EDT on July 04, 2015 (GMT -0400)
Terra Greens Golf Course | | Change Station
CLOSE
Current Station
Personal Weather Station
Location: East Stroudsburg, PA
Elevation: 518 ft
Nearby Weather Stations

Elev 518 ft 41.01 °N, 75.17 °W | Updated 3 seconds ago

Rain
Rain
64.8 °F
Feels Like 64.8 °F
N
3.4
Wind Variable Wind from ENE
Gusts 6.9 mph

Today
High -- | Low -- °F
--% Chance of Precip.
Yesterday
High -- | Low -- °F
Precip. -- in
5:33 AM 8:35 PM
Waning Gibbous, 91% visible
Pressure 30.01 in
Visibility 3.0 miles
Clouds Mostly Cloudy 600 ft
Mostly Cloudy 1000 ft
Overcast 1300 ft
Dew Point 58 °F
Humidity 79%
Rainfall 0.20 in
Snow Depth Not available.
UV 4 out of 12
Pollen .50 out of 12
Air Quality Not available.
Flu Activity Not available.
SPECI KMPO 041627Z AUTO 09007KT 3SM -RA BR BKN006 BKN010 OVC013 16/14 A3001 RMK AO2 CIG 003V008 P0005 T01560139 $

More Conditions Fewer Conditions

Pressure 30.01 in
Visibility 3.0 miles
Clouds Mostly Cloudy 600 ft
Mostly Cloudy 1000 ft
Overcast 1300 ft
Dew Point 58 °F
Humidity 79%
Rainfall 0.20 in
Snow Depth Not available.
UV 4 out of 12
Pollen .50 out of 12
Air Quality Not available.
Flu Activity Not available.
SPECI KMPO 041627Z AUTO 09007KT 3SM -RA BR BKN006 BKN010 OVC013 16/14 A3001 RMK AO2 CIG 003V008 P0005 T01560139 $

More Conditions Fewer Conditions

Nowcast | as of 11:50 am EDT on July 4, 2015

Between now and 200 PM, rain showers will continue to affect much of eastern Pennsylvania and northwestern New Jersey. Additional rainfall amounts of one or two tenths of an inch are possible.

×

10-Day Weather Forecast

×

Almanac

Astronomy

Jul. 04, 2015 Rise Set
Actual Time
Civil Twilight
Nautical Twilight
Astronomical Twilight
Moon
Length of Visible Light
Length of Day
Tomorrow will be .
, % of the Moon is Illuminated

Today's Extremes

State Highs State Lows

Community

WunderPhotos

Upload Photos

1,834,998 photos uploaded!

WunderBlogs® & News

Nearby

Air Quality

  Air Quality AQ Index Pollutant
Not available.

Snow Depth

Station Depth Elevation

Earthquake Activity

City Distance Mag. Time & Date
Minimum magnitude displayed is 2.5.

Coastal Water Temperatures

Place Temperature

Stations

Nearby Weather Stations

Station Location Temp. Windchill Dew Point Humidity Wind Precip. Elev Updated Type